Hlavní strana
METAR-TAF:

METAR-TAF

Letiště :

Joensuu, Finsko

zeměpisná šířka: 62-40N, zeměpisná délka: 029-38E, výška: 119 m

Aktuální stav počasí

Zpráva byla vytvořena před 18 minutami, v 21:20 UTC
Jihojihovýchodní vítr 11 kt
Teplota 4°C
Vlhkost vzduchu 100%
Tlak 1028 hPa
Viditelnost: 9000 m
Zataženo ve výšce 500 ft
slabé mrholení

METAR: EFJO 192120Z AUTO 15011KT 9000 -DZ OVC005 04/04 Q1028

Čas: 23:38 (21:38 UTC)

Předpověď počasí

Zpráva byla vytvořena před 1 hodinou a 13 minutami, v 20:25 UTC
Předpověď platná od 19 v 21 UTC do 19 v 24 UTC
Jihovýchodní vítr 11 kt
Viditelnost: 8000 m
Zataženo ve výšce 400 ft
slabé mrholení
Dočasný
od 19 v 21 UTC do 19 v 24 UTC
Viditelnost: 3000 m
Zataženo ve výšce 500 ft
mrholení

TAF: EFJO 192025Z 1921/1924 14011KT 8000 -DZ OVC004 TEMPO 1921/1924 3000 DZ OVC005

Stav a předpovědi počasí z více než 4 000 letišť (zprávy METAR a TAF).

Červené a žluté tečky na mapě představují dostupné meteorologické stanice.

Když kurzor umístíte na tečku, zobrazí se název stanice.

Pak kliknutím zobrazíte stav a předpověď počasí.

Chcete-li změnit mapu, kliknutím na zelené tlačítko se znaménkem +mapu přiblížíte, kliknutím na zelené tlačítko se znaménkem – mapu oddálíte a kliknutím na zelené šipky přejdete na sousední mapy.


METAR-TAF: